Time;durP1;ratioP1;P1;durP2;ratioP2;P2;SDS_P1;SDS_P2;PMS_P1;PMS_P2;Temp;Humidity;BMP_temperature;BMP_pressure;BME280_temperature;BME280_humidity;BME280_pressure;Samples;Min_cycle;Max_cycle;Signal;HPM_P1;HPM_P2
2023/03/20 00:01:29;;;;;;;10.20;4.82;;;;;;;6.55;53.59;94240.19;5063201;28;20044;-78
2023/03/20 00:03:55;;;;;;;12.55;6.05;;;;;;;6.51;53.67;94236.53;5063198;28;20362;-78
2023/03/20 00:06:23;;;;;;;16.02;5.95;;;;;;;6.52;53.81;94230.19;5063461;28;20025;-79
2023/03/20 00:08:51;;;;;;;10.48;5.72;;;;;;;6.49;53.76;94230.72;5063358;28;20189;-78
2023/03/20 00:11:47;;;;;;;10.32;5.32;;;;;;;6.49;53.99;94231.50;5063056;28;20088;-79
2023/03/20 00:14:14;;;;;;;12.55;5.45;;;;;;;6.45;54.21;94227.03;5062236;28;20350;-77
2023/03/20 00:16:44;;;;;;;11.10;4.65;;;;;;;6.42;54.40;94225.75;5062797;28;20087;-78
2023/03/20 00:19:16;;;;;;;15.35;5.00;;;;;;;6.37;54.61;94231.88;5061156;28;20192;-81
2023/03/20 00:21:42;;;;;;;7.90;4.37;;;;;;;6.32;54.77;94226.59;5061567;28;20280;-72
2023/03/20 00:24:07;;;;;;;9.27;4.50;;;;;;;6.21;55.43;94217.19;5062674;28;20025;-73
2023/03/20 00:26:35;;;;;;;9.35;4.22;;;;;;;6.17;55.33;94224.09;5063159;28;20094;-72
2023/03/20 00:29:03;;;;;;;14.15;4.30;;;;;;;6.12;55.55;94222.25;5063229;28;20298;-73
2023/03/20 00:31:30;;;;;;;9.75;4.32;;;;;;;6.10;55.77;94221.75;5062867;28;20278;-73
2023/03/20 00:33:59;;;;;;;11.02;4.63;;;;;;;6.01;56.27;94224.19;5062854;28;20037;-73
2023/03/20 00:36:25;;;;;;;14.93;4.80;;;;;;;5.95;56.33;94221.84;5062983;28;20299;-72
2023/03/20 00:38:50;;;;;;;10.88;4.93;;;;;;;5.94;56.24;94214.94;5062423;28;20033;-73
2023/03/20 00:41:26;;;;;;;12.32;5.18;;;;;;;5.88;56.34;94216.81;5062797;28;20028;-73
2023/03/20 00:43:55;;;;;;;10.02;4.88;;;;;;;5.87;56.36;94215.25;5062680;28;20028;-73
2023/03/20 00:46:21;;;;;;;11.20;4.75;;;;;;;5.85;56.50;94216.59;5062086;28;20029;-73
2023/03/20 00:48:47;;;;;;;11.13;5.15;;;;;;;5.80;56.64;94212.91;5062648;28;20052;-73
2023/03/20 00:51:13;;;;;;;15.75;5.75;;;;;;;5.83;56.71;94217.66;5062696;28;20028;-73
2023/03/20 00:53:38;;;;;;;11.10;5.97;;;;;;;5.82;56.59;94212.63;5062669;28;20025;-73
2023/03/20 00:56:04;;;;;;;14.05;6.00;;;;;;;5.79;56.91;94213.97;5062897;28;20256;-73
2023/03/20 00:58:30;;;;;;;12.38;5.63;;;;;;;5.77;56.94;94204.75;5062549;28;20031;-74
2023/03/20 01:00:56;;;;;;;10.50;5.75;;;;;;;5.74;57.17;94206.09;5062557;28;20408;-73
2023/03/20 01:03:24;;;;;;;18.48;6.43;;;;;;;5.74;57.10;94203.44;5062581;28;20025;-74
2023/03/20 01:05:51;;;;;;;19.27;6.82;;;;;;;5.75;56.95;94197.06;5062615;28;20025;-73
2023/03/20 01:08:22;;;;;;;15.10;7.65;;;;;;;5.70;57.29;94210.34;5062739;28;20029;-73
2023/03/20 01:10:52;;;;;;;17.98;6.57;;;;;;;5.63;57.51;94209.84;5062592;28;20024;-74
2023/03/20 01:13:23;;;;;;;15.63;7.15;;;;;;;5.61;57.65;94196.09;5062705;28;20035;-73
2023/03/20 01:15:51;;;;;;;16.63;6.83;;;;;;;5.56;57.76;94185.56;5062588;28;20013;-73
2023/03/20 01:18:18;;;;;;;13.73;6.30;;;;;;;5.52;57.91;94187.16;5062436;28;20028;-73
2023/03/20 01:20:44;;;;;;;15.07;6.97;;;;;;;5.49;57.96;94182.41;5062400;28;20315;-73
2023/03/20 01:23:10;;;;;;;17.63;7.70;;;;;;;5.51;58.03;94186.34;5062443;28;20099;-73
2023/03/20 01:25:37;;;;;;;12.55;6.38;;;;;;;5.52;58.17;94182.66;5062497;28;20055;-73
2023/03/20 01:28:15;;;;;;;17.63;8.15;;;;;;;5.53;58.13;94183.44;5063704;28;20078;-73
2023/03/20 01:30:41;;;;;;;15.60;7.70;;;;;;;5.52;58.15;94187.16;5066317;28;20104;-73
2023/03/20 01:33:24;;;;;;;17.20;7.72;;;;;;;5.52;58.25;94187.16;5065043;28;20215;-73
2023/03/20 01:35:50;;;;;;;16.20;7.38;;;;;;;5.49;58.37;94190.34;5066317;28;20231;-74
2023/03/20 01:38:27;;;;;;;15.88;6.18;;;;;;;5.45;58.52;94192.72;5066140;28;20052;-73
2023/03/20 01:41:05;;;;;;;19.60;7.13;;;;;;;5.35;58.75;94198.88;5065929;28;20324;-73
2023/03/20 01:43:32;;;;;;;13.52;5.72;;;;;;;5.31;58.80;94187.28;5066054;28;20327;-73
2023/03/20 01:46:00;;;;;;;14.60;6.20;;;;;;;5.29;58.78;94199.97;5065858;28;20021;-72
2023/03/20 01:48:51;;;;;;;9.65;5.22;;;;;;;5.18;59.35;94193.91;5065737;28;20049;-73
2023/03/20 01:51:16;;;;;;;11.80;6.18;;;;;;;5.17;59.38;94202.09;5065736;28;20051;-72
2023/03/20 01:53:44;;;;;;;16.52;6.80;;;;;;;5.11;59.43;94189.97;5065785;28;20032;-72
2023/03/20 01:56:12;;;;;;;17.23;7.82;;;;;;;5.14;59.58;94202.66;5065931;28;20091;-72
2023/03/20 01:58:43;;;;;;;18.25;8.45;;;;;;;5.07;59.59;94202.16;5065727;28;20122;-72
2023/03/20 02:01:12;;;;;;;16.60;7.20;;;;;;;5.11;59.70;94201.34;5065803;28;20273;-72
2023/03/20 02:03:39;;;;;;;18.23;7.50;;;;;;;5.10;59.35;94196.34;5065460;28;20323;-72
2023/03/20 02:06:05;;;;;;;14.23;6.53;;;;;;;5.08;59.68;94203.75;5065581;28;20092;-72
2023/03/20 02:08:40;;;;;;;15.38;6.53;;;;;;;5.10;59.68;94197.13;5065559;28;20020;-72
2023/03/20 02:11:05;;;;;;;15.45;7.05;;;;;;;5.10;59.64;94196.34;5065996;28;20027;-72
2023/03/20 02:13:32;;;;;;;13.32;5.93;;;;;;;5.02;59.90;94195.81;5065428;28;20021;-72
2023/03/20 02:16:02;;;;;;;16.02;5.70;;;;;;;5.01;59.97;94199.53;5065407;28;20016;-72
2023/03/20 02:18:29;;;;;;;15.40;7.85;;;;;;;5.02;60.15;94201.09;5065251;28;20029;-72
2023/03/20 02:21:41;;;;;;;18.67;7.55;;;;;;;4.96;60.41;94191.63;5065088;28;20075;-72
2023/03/20 02:24:28;;;;;;;18.25;6.93;;;;;;;4.87;60.96;94189.81;5064095;28;20398;-72
2023/03/20 02:27:22;;;;;;;20.92;8.23;;;;;;;4.83;61.27;94192.19;5065139;28;20365;-72
2023/03/20 02:30:24;;;;;;;20.60;9.65;;;;;;;4.81;61.39;94199.59;5065259;28;20036;-72
2023/03/20 02:33:18;;;;;;;25.20;10.32;;;;;;;4.72;61.54;94201.19;5065061;28;20029;-72
2023/03/20 02:36:08;;;;;;;23.98;10.65;;;;;;;4.65;62.05;94211.25;5065064;28;20032;-72
2023/03/20 02:38:47;;;;;;;26.98;12.13;;;;;;;4.66;62.02;94202.25;5064923;28;20028;-72
2023/03/20 02:41:24;;;;;;;27.88;12.18;;;;;;;4.66;62.02;94203.06;5063862;28;20028;-71
2023/03/20 02:44:02;;;;;;;21.00;10.93;;;;;;;4.69;62.10;94196.47;5064207;28;20025;-71
2023/03/20 02:47:04;;;;;;;20.85;10.00;;;;;;;4.68;61.95;94194.84;5063553;28;20311;-71
2023/03/20 02:49:41;;;;;;;26.98;10.82;;;;;;;4.66;62.01;94183.78;5064531;28;20041;-71
2023/03/20 02:52:24;;;;;;;23.50;9.45;;;;;;;4.65;62.24;94187.50;5064553;28;20056;-71
2023/03/20 02:54:52;;;;;;;;;;;;;;;4.62;62.14;94181.69;5065194;28;20119;-71
2023/03/20 02:57:40;;;;;;;18.83;7.93;;;;;;;4.58;62.10;94180.63;5064535;28;19912;-71
2023/03/20 03:00:19;;;;;;;18.90;7.22;;;;;;;4.52;62.01;94188.81;5064648;28;20254;-72
2023/03/20 03:02:52;;;;;;;16.55;7.50;;;;;;;4.50;62.26;94183.81;5064592;28;20329;-72
2023/03/20 03:05:34;;;;;;;20.35;8.40;;;;;;;4.55;62.05;94185.66;5064372;28;20036;-72
2023/03/20 03:08:03;;;;;;;16.15;8.32;;;;;;;4.51;62.31;94179.31;5064290;28;20092;-72
2023/03/20 03:10:33;;;;;;;17.58;9.10;;;;;;;4.54;62.44;94184.88;5064339;28;20013;-72
2023/03/20 03:13:01;;;;;;;17.33;8.95;;;;;;;4.56;62.13;94185.41;5064275;28;20043;-71
2023/03/20 03:15:40;;;;;;;24.58;8.20;;;;;;;4.56;62.12;94182.75;5064190;28;20265;-71
2023/03/20 03:18:11;;;;;;;17.45;8.15;;;;;;;4.57;62.11;94173.75;5064170;28;20039;-72
2023/03/20 03:20:38;;;;;;;17.57;8.53;;;;;;;4.57;61.91;94171.13;5064021;28;20111;-72
2023/03/20 03:23:05;;;;;;;14.25;7.28;;;;;;;4.61;61.71;94180.09;5064136;28;20036;-71
2023/03/20 03:25:41;;;;;;;18.70;8.00;;;;;;;4.61;61.64;94180.09;5064070;28;20041;-72
2023/03/20 03:28:17;;;;;;;16.10;7.95;;;;;;;4.63;61.59;94185.88;5064023;28;20039;-71
2023/03/20 03:30:44;;;;;;;17.23;8.02;;;;;;;4.67;61.43;94182.72;5063858;28;20021;-72
2023/03/20 03:33:27;;;;;;;16.70;8.13;;;;;;;4.67;61.51;94180.09;5063980;28;20021;-72
2023/03/20 03:36:23;;;;;;;14.50;7.07;;;;;;;4.65;61.52;94179.56;5063901;28;20052;-71
2023/03/20 03:38:58;;;;;;;20.17;7.30;;;;;;;4.63;61.32;94177.19;5055388;28;20044;-71
2023/03/20 03:41:36;;;;;;;19.23;6.88;;;;;;;4.66;61.02;94173.22;5063776;28;20025;-71
2023/03/20 03:44:23;;;;;;;15.75;7.03;;;;;;;4.70;60.71;94183.00;5063679;28;20024;-71
2023/03/20 03:46:54;;;;;;;13.07;6.50;;;;;;;4.72;60.58;94177.41;5063701;28;20279;-71
2023/03/20 03:49:35;;;;;;;15.95;7.00;;;;;;;4.75;60.58;94180.31;5063429;28;20294;-71
2023/03/20 03:52:05;;;;;;;20.05;7.35;;;;;;;4.71;60.55;94179.28;5063041;28;20312;-71
2023/03/20 03:54:58;;;;;;;16.02;6.45;;;;;;;4.67;60.86;94177.44;5063441;28;20044;-71
2023/03/20 03:57:31;;;;;;;16.85;5.90;;;;;;;4.66;61.02;94175.84;5060303;28;20032;-71
2023/03/20 04:00:00;;;;;;;15.80;7.22;;;;;;;4.65;60.84;94180.34;5063382;28;20099;-72
2023/03/20 04:02:26;;;;;;;22.77;6.68;;;;;;;4.65;60.90;94161.88;5063526;28;20230;-72
2023/03/20 04:04:54;;;;;;;13.27;5.78;;;;;;;4.60;61.16;94167.19;5063182;28;20021;-72
2023/03/20 04:07:20;;;;;;;16.15;6.03;;;;;;;4.58;61.19;94170.06;5063272;28;20017;-72
2023/03/20 04:09:46;;;;;;;12.50;5.78;;;;;;;4.57;61.19;94172.97;5063115;28;20021;-72
2023/03/20 04:12:39;;;;;;;15.55;5.45;;;;;;;4.54;61.32;94163.75;5063292;28;20028;-72
2023/03/20 04:15:05;;;;;;;11.15;5.32;;;;;;;4.48;61.38;94158.72;5063385;28;20214;-72
2023/03/20 04:17:31;;;;;;;13.27;6.32;;;;;;;4.45;61.65;94164.56;5063212;28;20020;-73
2023/03/20 04:19:56;;;;;;;22.92;8.57;;;;;;;4.42;61.62;94165.88;5062869;28;20238;-71
2023/03/20 04:22:22;;;;;;;30.13;11.63;;;;;;;4.42;61.75;94160.59;5063040;28;20112;-71
2023/03/20 04:24:47;;;;;;;30.55;11.85;;;;;;;4.39;61.57;94161.13;5063135;28;20020;-71
2023/03/20 04:27:13;;;;;;;38.67;11.80;;;;;;;4.37;61.65;94166.66;5062982;28;20337;-71
2023/03/20 04:29:39;;;;;;;31.23;11.45;;;;;;;4.36;61.87;94159.81;5063038;28;20021;-71
2023/03/20 04:32:05;;;;;;;26.85;11.02;;;;;;;4.33;61.99;94157.69;5063023;28;20107;-71
2023/03/20 04:34:30;;;;;;;27.75;11.25;;;;;;;4.37;62.03;94157.97;5062710;28;20087;-71
2023/03/20 04:36:56;;;;;;;28.95;9.82;;;;;;;4.37;62.03;94160.59;5062930;28;20326;-73
2023/03/20 04:39:22;;;;;;;27.77;9.57;;;;;;;4.35;62.14;94160.06;5062831;28;20017;-72
2023/03/20 04:41:47;;;;;;;19.42;7.78;;;;;;;4.38;62.15;94164.84;5062912;28;20032;-72
2023/03/20 04:44:12;;;;;;;26.83;9.90;;;;;;;4.38;62.00;94160.34;5062690;28;20330;-72
2023/03/20 04:46:38;;;;;;;45.17;16.92;;;;;;;4.42;61.87;94173.81;5062830;28;20055;-72
2023/03/20 04:49:04;;;;;;;58.22;18.70;;;;;;;4.48;61.93;94179.84;5062620;28;20347;-72
2023/03/20 04:51:29;;;;;;;26.42;10.82;;;;;;;4.48;61.43;94183.28;5062795;28;20319;-72
2023/03/20 04:53:54;;;;;;;27.98;10.32;;;;;;;4.49;61.26;94192.00;5062766;28;20031;-73
2023/03/20 04:56:20;;;;;;;32.72;9.52;;;;;;;4.50;61.30;94191.75;5062583;28;20032;-73
2023/03/20 04:58:46;;;;;;;20.17;8.35;;;;;;;4.52;61.52;94197.53;5062513;28;20096;-72
2023/03/20 05:01:11;;;;;;;22.42;9.35;;;;;;;4.47;62.03;94200.19;5062657;28;20033;-73
2023/03/20 05:03:38;;;;;;;23.45;8.95;;;;;;;4.48;62.01;94201.78;5066687;28;20029;-73
2023/03/20 05:06:03;;;;;;;24.45;9.63;;;;;;;4.48;62.50;94196.50;5066840;28;20223;-72
2023/03/20 05:08:29;;;;;;;26.23;8.90;;;;;;;4.59;62.08;94194.63;5065405;28;20059;-72
2023/03/20 05:10:54;;;;;;;18.63;9.07;;;;;;;4.66;61.91;94192.50;5066634;28;20025;-72
2023/03/20 05:13:20;;;;;;;31.15;10.07;;;;;;;4.70;62.22;94198.03;5066386;28;20047;-72
2023/03/20 05:15:45;;;;;;;19.58;9.57;;;;;;;4.77;62.05;94195.91;5066406;28;20052;-72
2023/03/20 05:18:10;;;;;;;35.28;9.80;;;;;;;4.84;61.90;94188.47;5066502;28;20266;-72
2023/03/20 05:20:36;;;;;;;19.85;9.48;;;;;;;4.94;61.68;94196.38;5066516;28;20017;-72
2023/03/20 05:23:02;;;;;;;19.98;8.65;;;;;;;5.06;61.30;94200.56;5066462;28;20029;-72
2023/03/20 05:25:27;;;;;;;22.00;8.93;;;;;;;5.17;61.15;94196.81;5065050;28;20032;-72
2023/03/20 05:27:53;;;;;;;21.67;9.05;;;;;;;5.20;61.25;94205.00;5066397;28;20095;-72
2023/03/20 05:30:18;;;;;;;21.13;8.05;;;;;;;5.18;60.74;94209.00;5066270;28;20327;-72
2023/03/20 05:32:44;;;;;;;15.95;7.30;;;;;;;5.15;60.21;94196.31;5066214;28;20098;-72
2023/03/20 05:35:11;;;;;;;23.08;8.88;;;;;;;5.18;60.52;94203.69;5066053;28;20025;-72
2023/03/20 05:37:37;;;;;;;21.05;8.95;;;;;;;5.20;60.74;94204.22;5066137;28;20028;-73
2023/03/20 05:40:03;;;;;;;18.80;9.18;;;;;;;5.28;60.53;94197.59;5066084;28;20025;-73
2023/03/20 05:42:29;;;;;;;20.45;10.52;;;;;;;5.38;60.25;94198.31;5065976;28;20342;-72
2023/03/20 05:44:54;;;;;;;26.73;10.35;;;;;;;5.50;60.02;94195.38;5065800;28;20077;-72
2023/03/20 05:47:20;;;;;;;18.55;9.25;;;;;;;5.60;60.17;94208.53;5065958;28;20035;-72
2023/03/20 05:49:45;;;;;;;16.02;8.43;;;;;;;5.77;59.92;94210.81;5065614;28;20036;-72
2023/03/20 05:52:10;;;;;;;24.35;9.18;;;;;;;5.90;59.56;94214.69;5065940;28;20025;-71
2023/03/20 05:54:36;;;;;;;29.73;10.82;;;;;;;5.99;59.22;94212.31;5065682;28;20100;-71
2023/03/20 05:57:05;;;;;;;38.40;10.90;;;;;;;6.05;59.52;94213.84;5065989;28;20074;-71
2023/03/20 05:59:30;;;;;;;29.20;11.27;;;;;;;6.17;59.37;94214.28;5065628;28;20051;-72
2023/03/20 06:01:55;;;;;;;40.33;11.88;;;;;;;6.28;58.86;94217.63;5065610;28;20263;-72
2023/03/20 06:04:21;;;;;;;35.75;10.82;;;;;;;6.37;58.40;94213.34;5065442;28;20130;-72
2023/03/20 06:06:49;;;;;;;39.03;11.82;;;;;;;6.47;58.08;94203.72;5065302;28;20045;-73
2023/03/20 06:09:15;;;;;;;25.63;9.88;;;;;;;6.55;57.76;94193.31;5065058;28;20043;-71
2023/03/20 06:11:40;;;;;;;30.83;11.23;;;;;;;6.65;57.68;94202.25;5065272;28;20025;-71
2023/03/20 06:14:06;;;;;;;39.33;11.07;;;;;;;6.70;57.26;94199.56;5064701;28;20078;-73
2023/03/20 06:16:31;;;;;;;28.80;10.73;;;;;;;6.80;57.15;94202.09;5065232;28;20020;-71
2023/03/20 06:18:57;;;;;;;35.22;13.25;;;;;;;6.87;57.72;94210.50;5064962;28;20375;-73
2023/03/20 06:21:22;;;;;;;30.90;11.27;;;;;;;6.96;57.29;94205.38;5065070;28;20314;-71
2023/03/20 06:23:47;;;;;;;25.08;10.75;;;;;;;6.96;56.56;94215.97;5065072;28;20029;-71
2023/03/20 06:26:13;;;;;;;24.52;10.57;;;;;;;6.94;55.46;94218.91;5065044;28;20049;-71
2023/03/20 06:28:38;;;;;;;31.70;12.13;;;;;;;6.96;55.74;94219.44;5065035;28;20066;-71
2023/03/20 06:31:04;;;;;;;27.67;10.63;;;;;;;7.02;55.56;94226.25;5065060;28;20036;-71
2023/03/20 06:33:29;;;;;;;21.35;10.57;;;;;;;7.03;56.36;94225.16;5063800;28;20020;-72
2023/03/20 06:35:55;;;;;;;25.02;11.13;;;;;;;7.11;55.68;94215.03;5064790;28;20051;-71
2023/03/20 06:38:20;;;;;;;29.38;11.65;;;;;;;7.18;55.12;94213.59;5063636;28;20012;-72
2023/03/20 06:40:46;;;;;;;38.13;12.32;;;;;;;7.21;55.25;94214.91;5064683;28;20029;-70
2023/03/20 06:43:11;;;;;;;27.60;11.40;;;;;;;7.26;54.88;94216.72;5063511;28;20029;-70
2023/03/20 06:45:37;;;;;;;36.35;12.38;;;;;;;7.33;54.68;94225.91;5064634;28;20021;-70
2023/03/20 06:48:08;;;;;;;31.60;12.02;;;;;;;7.41;54.80;94219.97;5064593;28;20044;-71
2023/03/20 06:50:34;;;;;;;30.48;11.57;;;;;;;7.48;55.09;94218.84;5064550;28;20017;-71
2023/03/20 06:53:00;;;;;;;27.13;11.75;;;;;;;7.50;54.87;94212.16;5064296;28;20009;-71
2023/03/20 06:55:26;;;;;;;24.55;11.38;;;;;;;7.64;54.92;94214.91;5064392;28;20337;-70
2023/03/20 06:57:51;;;;;;;29.27;12.68;;;;;;;7.80;54.20;94221.59;5064480;28;20040;-70
2023/03/20 07:00:17;;;;;;;23.42;11.25;;;;;;;7.90;54.25;94209.28;5064649;28;20028;-71
2023/03/20 07:02:43;;;;;;;27.75;11.98;;;;;;;8.00;53.89;94203.81;5064453;28;20028;-67
2023/03/20 07:05:09;;;;;;;26.02;12.70;;;;;;;8.15;54.03;94214.22;5064304;28;20312;-68
2023/03/20 07:07:35;;;;;;;26.92;11.80;;;;;;;8.32;54.17;94204.94;5064652;28;20082;-67
2023/03/20 07:10:01;;;;;;;31.25;12.20;;;;;;;8.49;54.08;94204.41;5064257;28;20189;-68
2023/03/20 07:12:27;;;;;;;19.48;10.25;;;;;;;8.70;53.38;94202.22;5064129;28;20242;-68
2023/03/20 07:14:53;;;;;;;27.38;11.88;;;;;;;8.82;52.73;94202.53;5064143;28;20023;-68
2023/03/20 07:17:19;;;;;;;26.25;11.30;;;;;;;8.94;53.10;94199.41;5063809;28;20016;-67
2023/03/20 07:19:44;;;;;;;25.13;10.68;;;;;;;8.97;53.08;94204.13;5063815;28;20024;-68
2023/03/20 07:22:20;;;;;;;21.98;10.48;;;;;;;9.12;52.94;94200.38;5064050;28;20032;-68
2023/03/20 07:24:46;;;;;;;21.88;11.05;;;;;;;9.24;52.93;94192.72;5063475;28;20017;-67
2023/03/20 07:27:11;;;;;;;31.67;11.43;;;;;;;9.29;52.82;94195.28;5063235;28;20052;-67
2023/03/20 07:29:36;;;;;;;22.80;8.57;;;;;;;9.42;51.72;94189.16;5063866;28;20013;-67
2023/03/20 07:32:02;;;;;;;25.70;9.48;;;;;;;9.55;51.51;94197.44;5064045;28;20028;-67
2023/03/20 07:34:27;;;;;;;31.20;11.88;;;;;;;9.64;51.08;94196.41;5063618;28;20028;-67
2023/03/20 07:36:53;;;;;;;28.85;10.77;;;;;;;9.76;50.75;94198.56;5063588;28;20032;-67
2023/03/20 07:39:18;;;;;;;30.10;10.48;;;;;;;9.82;50.51;94192.03;5063214;28;20219;-67
2023/03/20 07:41:44;;;;;;;28.00;9.70;;;;;;;9.81;50.00;94195.81;5063476;28;20045;-67
2023/03/20 07:44:09;;;;;;;19.33;8.88;;;;;;;9.82;50.22;94193.94;5063472;28;20083;-67
2023/03/20 07:46:35;;;;;;;22.48;8.85;;;;;;;9.81;49.42;94201.13;5063235;28;20032;-67
2023/03/20 07:49:00;;;;;;;16.05;8.27;;;;;;;9.78;49.11;94203.59;5062987;28;20041;-67
2023/03/20 07:51:26;;;;;;;22.58;10.18;;;;;;;9.83;48.92;94206.13;5063469;28;20134;-67
2023/03/20 07:53:51;;;;;;;29.27;10.20;;;;;;;9.82;49.29;94200.03;5063451;28;20226;-67
2023/03/20 07:56:16;;;;;;;24.40;11.05;;;;;;;9.82;49.73;94202.69;5063310;28;20088;-67
2023/03/20 07:58:42;;;;;;;35.22;11.27;;;;;;;9.86;49.61;94212.75;5063177;28;20025;-70
2023/03/20 08:01:07;;;;;;;18.77;9.70;;;;;;;9.84;49.39;94203.19;5063041;28;20143;-69
2023/03/20 08:03:32;;;;;;;23.77;9.50;;;;;;;9.87;48.48;94207.13;5063381;28;20350;-69
2023/03/20 08:05:58;;;;;;;18.27;8.57;;;;;;;9.93;48.43;94202.47;5063176;28;20021;-70
2023/03/20 08:08:24;;;;;;;21.60;7.70;;;;;;;10.06;47.92;94195.56;5062834;28;20027;-69
2023/03/20 08:10:49;;;;;;;22.00;8.70;;;;;;;10.14;48.08;94200.94;5062953;28;20087;-70
2023/03/20 08:13:15;;;;;;;26.40;10.88;;;;;;;10.12;47.88;94200.44;5062980;28;20039;-70
2023/03/20 08:15:40;;;;;;;32.03;9.27;;;;;;;10.22;47.58;94205.53;5062749;28;20047;-70
2023/03/20 08:18:06;;;;;;;21.52;9.45;;;;;;;10.17;48.04;94205.66;5062700;28;20021;-71
2023/03/20 08:20:31;;;;;;;21.52;8.95;;;;;;;10.29;48.19;94196.34;5062897;28;20017;-72
2023/03/20 08:22:57;;;;;;;33.78;9.57;;;;;;;10.39;48.11;94202.25;5062905;28;20251;-73
2023/03/20 08:25:22;;;;;;;26.20;8.63;;;;;;;10.49;47.25;94203.88;5062820;28;20025;-71
2023/03/20 08:27:48;;;;;;;19.65;8.45;;;;;;;10.60;47.11;94197.22;5063037;28;20021;-71
2023/03/20 08:30:14;;;;;;;28.25;7.85;;;;;;;10.75;46.47;94206.72;5063092;28;20051;-71
2023/03/20 08:32:40;;;;;;;29.48;7.50;;;;;;;10.84;44.72;94209.41;5062617;28;20029;-71
2023/03/20 08:35:07;;;;;;;18.75;7.22;;;;;;;10.94;44.97;94203.03;5063015;28;20315;-71
2023/03/20 08:37:33;;;;;;;31.63;7.70;;;;;;;11.07;44.53;94202.16;5062674;28;20020;-70
2023/03/20 08:39:59;;;;;;;22.88;9.65;;;;;;;11.14;44.16;94207.06;5062593;28;20021;-70
2023/03/20 08:42:24;;;;;;;31.77;11.88;;;;;;;11.10;44.61;94212.22;5062532;28;20253;-69
2023/03/20 08:44:50;;;;;;;25.38;12.10;;;;;;;11.20;45.01;94205.84;5062622;28;20025;-70
2023/03/20 08:47:15;;;;;;;24.92;11.40;;;;;;;11.27;45.25;94198.16;5062538;28;20066;-70
2023/03/20 08:49:42;;;;;;;35.00;12.38;;;;;;;11.38;45.16;94199.47;5062585;28;20045;-69
2023/03/20 08:52:07;;;;;;;28.25;12.73;;;;;;;11.47;44.83;94196.03;5062615;28;20090;-69
2023/03/20 08:54:33;;;;;;;31.27;12.27;;;;;;;11.59;45.02;94185.53;5062818;28;20045;-70
2023/03/20 08:56:58;;;;;;;23.60;11.43;;;;;;;11.74;45.16;94193.09;5062637;28;20191;-70
2023/03/20 08:59:23;;;;;;;32.92;11.05;;;;;;;11.82;44.99;94183.53;5062266;28;20017;-69
2023/03/20 09:01:49;;;;;;;30.85;10.50;;;;;;;12.02;45.15;94184.84;5062515;28;20056;-70
2023/03/20 09:04:15;;;;;;;21.88;9.73;;;;;;;12.12;43.26;94195.22;5062373;28;20025;-71
2023/03/20 09:06:40;;;;;;;36.67;10.27;;;;;;;12.21;42.78;94189.88;5062400;28;20021;-70
2023/03/20 09:09:06;;;;;;;28.92;11.93;;;;;;;12.14;42.29;94187.66;5062646;28;20223;-70
2023/03/20 09:11:33;;;;;;;24.63;11.38;;;;;;;12.16;42.54;94182.03;5062488;28;20032;-70
2023/03/20 09:13:59;;;;;;;25.50;10.02;;;;;;;12.21;42.81;94184.53;5062627;28;20024;-70
2023/03/20 09:16:25;;;;;;;22.02;10.25;;;;;;;12.28;42.81;94184.06;5062366;28;20025;-70
2023/03/20 09:18:50;;;;;;;27.27;10.52;;;;;;;12.36;42.31;94178.72;5062182;28;20087;-70
2023/03/20 09:21:16;;;;;;;21.45;10.20;;;;;;;12.43;41.91;94186.25;5062359;28;20027;-70
2023/03/20 09:23:41;;;;;;;29.90;11.57;;;;;;;12.47;41.56;94175.72;5062220;28;20039;-71
2023/03/20 09:26:06;;;;;;;26.55;10.20;;;;;;;12.52;41.74;94176.34;5062130;28;20084;-71
2023/03/20 09:28:32;;;;;;;25.25;10.93;;;;;;;12.62;41.85;94173.34;5062353;28;20095;-71
2023/03/20 09:30:58;;;;;;;25.17;10.25;;;;;;;12.77;42.33;94174.69;5062122;28;20068;-70
2023/03/20 09:33:25;;;;;;;35.45;10.82;;;;;;;12.91;42.42;94165.72;5062092;28;20020;-70
2023/03/20 09:35:50;;;;;;;21.73;10.32;;;;;;;13.07;42.33;94164.06;5062254;28;20029;-70
2023/03/20 09:38:16;;;;;;;22.95;10.80;;;;;;;13.21;41.58;94158.53;5062261;28;20322;-70
2023/03/20 09:40:51;;;;;;;30.13;10.52;;;;;;;13.34;41.13;94160.19;5061005;28;20028;-70
2023/03/20 09:43:34;;;;;;;23.75;10.95;;;;;;;13.36;40.34;94155.31;5062338;28;20274;-70
2023/03/20 09:46:18;;;;;;;26.30;11.18;;;;;;;13.44;40.04;94151.81;5062258;28;20021;-70
2023/03/20 09:48:50;;;;;;;26.80;13.13;;;;;;;13.56;40.19;94147.66;5062494;28;20053;-70
2023/03/20 09:51:27;;;;;;;31.47;12.37;;;;;;;13.65;40.34;94129.63;5065915;28;20033;-71
2023/03/20 09:53:58;;;;;;;27.02;11.85;;;;;;;13.78;40.69;94122.44;5065862;28;20028;-71
2023/03/20 09:56:26;;;;;;;27.88;10.52;;;;;;;13.93;41.13;94119.19;5065679;28;20048;-71
2023/03/20 09:58:57;;;;;;;22.30;9.48;;;;;;;14.15;40.12;94115.38;5065491;28;20369;-70
2023/03/20 10:01:32;;;;;;;23.63;10.95;;;;;;;14.31;39.19;94104.84;5065761;28;20036;-70
2023/03/20 10:04:07;;;;;;;28.35;10.98;;;;;;;14.41;38.99;94103.59;5065628;28;20028;-71
2023/03/20 10:06:33;;;;;;;25.20;9.82;;;;;;;14.48;39.56;94093.16;5065587;28;20354;-71
2023/03/20 10:08:59;;;;;;;30.15;9.63;;;;;;;14.59;38.88;94082.78;5065576;28;20258;-72
2023/03/20 10:11:30;;;;;;;26.83;11.27;;;;;;;14.77;39.25;94091.44;5065427;28;20060;-72
2023/03/20 10:14:21;;;;;;;28.73;10.23;;;;;;;14.91;38.23;94089.22;5065453;28;20040;-72
2023/03/20 10:16:46;;;;;;;26.15;10.07;;;;;;;15.08;37.63;94077.47;5065493;28;20021;-72
2023/03/20 10:19:28;;;;;;;35.05;11.25;;;;;;;15.19;36.98;94075.91;5065288;28;20303;-72
2023/03/20 10:22:28;;;;;;;25.13;9.70;;;;;;;15.25;37.51;94079.94;5065028;28;20074;-72
2023/03/20 10:24:56;;;;;;;28.50;9.68;;;;;;;15.25;37.19;94084.53;5065047;28;20263;-72
2023/03/20 10:27:33;;;;;;;23.67;10.75;;;;;;;15.34;36.82;94076.34;5064025;28;20066;-73
2023/03/20 10:30:04;;;;;;;33.45;10.23;;;;;;;15.44;36.36;94073.19;5064873;28;20045;-72
2023/03/20 10:32:41;;;;;;;49.67;10.80;;;;;;;15.58;37.62;94079.00;5065109;28;20031;-72
2023/03/20 10:35:26;;;;;;;20.75;9.45;;;;;;;15.76;37.21;94073.41;5064892;28;20090;-72
2023/03/20 10:38:04;;;;;;;19.08;9.45;;;;;;;15.82;35.47;94066.66;5064859;28;20276;-72
2023/03/20 10:40:34;;;;;;;22.40;8.75;;;;;;;15.77;35.55;94067.69;5064673;28;20024;-72
2023/03/20 10:43:15;;;;;;;21.55;10.43;;;;;;;15.80;36.14;94063.53;5064817;28;20266;-72
2023/03/20 10:45:52;;;;;;;30.33;11.18;;;;;;;15.84;35.85;94053.66;5064834;28;20091;-73
2023/03/20 10:48:26;;;;;;;24.02;9.93;;;;;;;15.97;35.82;94062.47;5064433;28;20052;-72
2023/03/20 10:50:56;;;;;;;28.33;10.57;;;;;;;16.00;35.22;94051.03;5064699;28;20033;-72
2023/03/20 10:53:30;;;;;;;22.73;10.23;;;;;;;16.09;35.01;94046.28;5064633;28;20319;-72
2023/03/20 10:55:59;;;;;;;28.85;10.85;;;;;;;16.21;35.16;94048.13;5064467;28;20025;-72
2023/03/20 10:58:29;;;;;;;18.85;9.93;;;;;;;16.26;34.23;94042.50;5064442;28;20036;-72
2023/03/20 11:00:56;;;;;;;27.45;10.32;;;;;;;16.32;33.75;94046.50;5064182;28;20025;-73
2023/03/20 11:03:29;;;;;;;21.05;8.82;;;;;;;16.39;33.81;94052.09;5064241;28;20078;-73
2023/03/20 11:06:00;;;;;;;21.42;9.95;;;;;;;16.25;33.59;94040.94;5064484;28;20032;-73
2023/03/20 11:08:33;;;;;;;19.52;10.30;;;;;;;16.29;34.34;94036.44;5064498;28;20040;-74
2023/03/20 11:11:00;;;;;;;30.13;10.93;;;;;;;16.42;34.41;94029.09;5064516;28;20029;-74
2023/03/20 11:13:31;;;;;;;19.25;9.73;;;;;;;16.56;34.43;94025.97;5064166;28;20330;-73
2023/03/20 11:16:06;;;;;;;31.58;10.48;;;;;;;16.75;33.83;94026.09;5063977;28;20455;-70
2023/03/20 11:18:33;;;;;;;24.45;10.23;;;;;;;16.90;32.47;94023.75;5064060;28;20024;-71
2023/03/20 11:21:01;;;;;;;31.65;11.15;;;;;;;17.01;33.63;94012.09;5064017;28;20017;-73
2023/03/20 11:23:31;;;;;;;33.70;10.60;;;;;;;17.15;33.00;94014.31;5063859;28;20075;-71
2023/03/20 11:26:05;;;;;;;23.40;10.82;;;;;;;17.31;32.62;94008.13;5063801;28;20029;-71
2023/03/20 11:28:34;;;;;;;21.42;9.73;;;;;;;17.38;32.38;94001.00;5063558;28;20025;-73
2023/03/20 11:31:05;;;;;;;22.98;10.82;;;;;;;17.57;31.86;93999.44;5063851;28;20062;-72
2023/03/20 11:33:35;;;;;;;22.60;10.32;;;;;;;17.64;31.38;93992.28;5063997;28;20040;-71
2023/03/20 11:36:00;;;;;;;23.10;10.55;;;;;;;17.69;31.27;93993.13;5063537;28;20115;-71
2023/03/20 11:38:30;;;;;;;25.58;10.32;;;;;;;17.78;30.73;93989.09;5063558;28;20037;-71